Time;durP1;ratioP1;P1;durP2;ratioP2;P2;SDS_P1;SDS_P2;PMS_P1;PMS_P2;Temp;Humidity;BMP_temperature;BMP_pressure;BME280_temperature;BME280_humidity;BME280_pressure;Samples;Min_cycle;Max_cycle;Signal;HPM_P1;HPM_P2
2021/01/12 00:00:21;;;;;;;13.05;2.80;;;;;;;5.99;100.00;100905.97;4788946;29;20031;-82
2021/01/12 00:02:47;;;;;;;11.52;2.97;;;;;;;5.97;100.00;100900.78;4807235;29;20096;-82
2021/01/12 00:05:13;;;;;;;21.17;4.30;;;;;;;5.97;100.00;100905.13;4790422;29;20019;-81
2021/01/12 00:07:38;;;;;;;13.43;3.22;;;;;;;5.95;100.00;100892.06;4806893;29;20532;-81
2021/01/12 00:10:05;;;;;;;7.60;2.55;;;;;;;6.00;100.00;100885.84;4805995;29;20375;-82
2021/01/12 00:12:31;;;;;;;14.15;3.65;;;;;;;5.99;100.00;100881.50;4807837;29;20031;-81
2021/01/12 00:14:56;;;;;;;14.15;3.58;;;;;;;5.95;100.00;100871.06;4791820;29;20045;-81
2021/01/12 00:17:21;;;;;;;9.52;3.28;;;;;;;6.03;100.00;100885.78;4787427;29;20716;-81
2021/01/12 00:19:46;;;;;;;13.77;4.28;;;;;;;6.01;100.00;100875.31;4807284;29;20041;-82
2021/01/12 00:22:14;;;;;;;7.85;3.25;;;;;;;6.05;100.00;100861.22;4811984;29;20038;-81
2021/01/12 00:24:44;;;;;;;13.75;4.43;;;;;;;6.00;100.00;100860.47;4808445;29;20045;-81
2021/01/12 00:27:13;;;;;;;14.23;4.35;;;;;;;5.99;100.00;100865.75;4814114;29;20034;-81
2021/01/12 00:29:39;;;;;;;14.60;4.13;;;;;;;5.94;100.00;100848.38;4791839;29;21563;-81
2021/01/12 00:32:05;;;;;;;12.10;3.70;;;;;;;5.95;100.00;100846.59;4801716;29;20030;-81
2021/01/12 00:34:34;;;;;;;13.48;4.93;;;;;;;5.97;100.00;100834.28;4809016;29;20038;-81
2021/01/12 00:37:02;;;;;;;16.83;4.75;;;;;;;6.00;100.00;100834.22;4808243;29;20048;-80
2021/01/12 00:39:27;;;;;;;15.18;4.07;;;;;;;6.00;100.00;100823.72;4803878;29;20042;-80
2021/01/12 00:41:55;;;;;;;13.20;4.43;;;;;;;5.98;100.00;100830.81;4805157;29;20042;-80
2021/01/12 00:44:24;;;;;;;14.90;4.25;;;;;;;6.00;100.00;100833.38;4806692;29;20030;-81
2021/01/12 00:46:50;;;;;;;11.10;4.25;;;;;;;6.01;100.00;100814.97;4796309;29;20043;-81
2021/01/12 00:49:17;;;;;;;15.88;3.72;;;;;;;6.01;100.00;100800.97;4802782;29;20030;-80
2021/01/12 00:51:43;;;;;;;24.67;4.70;;;;;;;6.02;100.00;100800.06;4795074;29;20035;-80
2021/01/12 00:54:13;;;;;;;15.77;3.60;;;;;;;6.03;100.00;100807.94;4812774;29;20384;-81
2021/01/12 00:56:39;;;;;;;10.90;3.47;;;;;;;6.07;100.00;100803.44;4812251;29;20110;-80
2021/01/12 00:59:04;;;;;;;22.55;4.05;;;;;;;6.06;100.00;100785.97;4790602;29;20117;-80
2021/01/12 01:01:30;;;;;;;20.25;4.82;;;;;;;6.08;100.00;100778.94;4792834;29;20053;-80
2021/01/12 01:03:56;;;;;;;22.83;3.17;;;;;;;6.10;100.00;100787.63;4801666;29;20807;-80
2021/01/12 01:06:22;;;;;;;16.08;2.97;;;;;;;6.09;100.00;100778.03;4805018;29;20093;-80
2021/01/12 01:08:47;;;;;;;15.18;3.00;;;;;;;6.14;100.00;100771.75;4795032;29;20031;-80
2021/01/12 01:11:13;;;;;;;12.52;3.72;;;;;;;6.13;100.00;100777.06;4806846;29;20047;-80
2021/01/12 01:13:38;;;;;;;18.33;4.25;;;;;;;6.15;100.00;100751.63;4812208;29;20063;-80
2021/01/12 01:16:04;;;;;;;14.65;3.30;;;;;;;6.18;100.00;100762.06;4809706;29;20035;-80
2021/01/12 01:18:29;;;;;;;19.73;3.03;;;;;;;6.14;100.00;100774.38;4813895;29;20031;-81
2021/01/12 01:20:54;;;;;;;18.85;3.67;;;;;;;6.17;100.00;100761.16;4813643;29;20073;-80
2021/01/12 01:23:20;;;;;;;21.35;3.58;;;;;;;6.19;100.00;100763.75;4810273;29;20569;-81
2021/01/12 01:25:45;;;;;;;14.68;3.38;;;;;;;6.15;100.00;100744.59;4786812;29;20031;-81
2021/01/12 01:28:10;;;;;;;15.63;3.97;;;;;;;6.13;100.00;100750.81;4802374;29;20045;-81
2021/01/12 01:30:36;;;;;;;24.80;4.85;;;;;;;6.10;100.00;100746.50;4788982;29;20042;-81
2021/01/12 01:33:01;;;;;;;15.73;3.40;;;;;;;6.10;100.00;100743.88;4796968;29;20035;-80
2021/01/12 01:35:27;;;;;;;18.20;3.13;;;;;;;6.11;100.00;100731.63;4809397;29;20043;-81
2021/01/12 01:37:52;;;;;;;19.95;3.58;;;;;;;6.14;100.00;100737.66;4804962;29;20038;-80
2021/01/12 01:40:23;;;;;;;20.73;4.80;;;;;;;6.17;100.00;100739.31;4807120;29;20031;-81
2021/01/12 01:42:49;;;;;;;11.60;3.10;;;;;;;6.16;100.00;100733.19;4807189;29;20075;-81
2021/01/12 01:45:15;;;;;;;16.00;3.30;;;;;;;6.17;100.00;100734.91;4786867;29;20043;-81
2021/01/12 01:47:43;;;;;;;23.55;3.92;;;;;;;6.12;100.00;100728.94;4806520;29;20053;-81
2021/01/12 01:50:20;;;;;;;16.00;4.00;;;;;;;6.18;100.00;100730.56;4806531;29;20030;-83
2021/01/12 01:52:55;;;;;;;19.33;3.45;;;;;;;6.18;100.00;100730.56;4802459;29;20063;-83
2021/01/12 01:55:24;;;;;;;17.00;2.83;;;;;;;6.20;100.00;100733.97;4813679;29;20040;-84
2021/01/12 01:57:50;;;;;;;18.05;2.85;;;;;;;6.15;100.00;100722.75;4821929;29;20056;-82
2021/01/12 02:00:18;;;;;;;16.85;3.60;;;;;;;6.18;100.00;100725.31;4813831;29;20038;-82
2021/01/12 02:02:54;;;;;;;18.85;3.75;;;;;;;6.20;100.00;100736.59;4793705;29;20098;-82
2021/01/12 02:05:23;;;;;;;14.32;3.08;;;;;;;6.23;100.00;100726.91;4793381;29;20036;-81
2021/01/12 02:07:51;;;;;;;13.70;2.80;;;;;;;6.19;100.00;100714.75;4811853;29;20038;-83
2021/01/12 02:10:19;;;;;;;15.25;3.67;;;;;;;6.22;100.00;100724.28;4801517;29;20038;-84
2021/01/12 02:13:03;;;;;;;23.98;3.42;;;;;;;6.20;100.00;100711.22;4798985;29;20034;-83
2021/01/12 02:15:28;;;;;;;18.00;2.85;;;;;;;6.22;100.00;100716.41;4813285;29;20029;-83
2021/01/12 02:17:55;;;;;;;10.73;2.88;;;;;;;6.21;100.00;100709.47;4815885;29;20763;-83
2021/01/12 02:20:21;;;;;;;13.40;3.35;;;;;;;6.21;100.00;100705.06;4818063;29;20050;-83
2021/01/12 02:23:02;;;;;;;27.10;3.28;;;;;;;6.23;100.00;100702.41;4819806;29;20040;-82
2021/01/12 02:25:30;;;;;;;24.67;4.18;;;;;;;6.25;100.00;100694.50;4815221;29;20046;-82
2021/01/12 02:28:03;;;;;;;13.48;2.72;;;;;;;6.25;100.00;100692.72;4815085;29;20042;-82
2021/01/12 02:30:28;;;;;;;17.05;3.08;;;;;;;6.24;100.00;100693.63;4815172;29;20412;-82
2021/01/12 02:32:54;;;;;;;14.18;2.63;;;;;;;6.30;100.00;100690.81;4799490;29;20039;-82
2021/01/12 02:35:23;;;;;;;21.17;3.58;;;;;;;6.29;100.00;100693.50;4813447;29;20034;-81
2021/01/12 02:37:49;;;;;;;9.32;2.70;;;;;;;6.27;100.00;100669.91;4808415;29;20038;-81
2021/01/12 02:40:14;;;;;;;7.82;2.03;;;;;;;6.31;100.00;100670.69;4810965;29;20039;-80
2021/01/12 02:42:43;;;;;;;19.67;3.75;;;;;;;6.23;100.00;100663.06;4810129;29;20047;-80
2021/01/12 02:45:11;;;;;;;20.10;2.67;;;;;;;6.34;100.00;100670.59;4806847;29;20045;-80
2021/01/12 02:47:36;;;;;;;19.77;3.58;;;;;;;6.34;100.00;100676.72;4802680;29;20436;-80
2021/01/12 02:50:06;;;;;;;10.52;3.05;;;;;;;6.37;100.00;100650.34;4803496;29;20074;-80
2021/01/12 02:52:32;;;;;;;14.48;3.08;;;;;;;6.37;100.00;100657.38;4803664;29;20041;-80
2021/01/12 02:54:57;;;;;;;18.58;3.00;;;;;;;6.39;100.00;100650.31;4805999;29;20027;-80
2021/01/12 02:57:22;;;;;;;16.08;3.08;;;;;;;6.37;100.00;100654.75;4804063;29;20058;-80
2021/01/12 02:59:47;;;;;;;18.20;2.85;;;;;;;6.39;100.00;100637.19;4793420;29;20054;-80
2021/01/12 03:02:13;;;;;;;18.45;3.60;;;;;;;6.43;100.00;100634.44;4807086;29;20038;-80
2021/01/12 03:04:38;;;;;;;18.42;2.85;;;;;;;6.45;100.00;100642.25;4789649;29;20028;-81
2021/01/12 03:07:03;;;;;;;12.07;2.65;;;;;;;6.45;100.00;100650.13;4802733;29;20031;-80
2021/01/12 03:09:28;;;;;;;10.20;2.67;;;;;;;6.46;100.00;100636.09;4806491;29;20039;-81
2021/01/12 03:11:54;;;;;;;17.02;3.00;;;;;;;6.46;100.00;100636.94;4809195;29;20042;-81
2021/01/12 03:14:19;;;;;;;11.70;2.20;;;;;;;6.45;100.00;100619.50;4792250;29;21107;-80
2021/01/12 03:16:44;;;;;;;11.90;3.47;;;;;;;6.42;100.00;100616.94;4808044;29;20066;-81
2021/01/12 03:19:11;;;;;;;15.05;3.70;;;;;;;6.44;100.00;100611.66;4816356;29;20050;-80
2021/01/12 03:21:36;;;;;;;7.82;2.70;;;;;;;6.49;100.00;100626.38;4805437;29;20035;-81
2021/01/12 03:24:02;;;;;;;11.57;2.92;;;;;;;6.48;100.00;100608.91;4819938;29;20058;-80
2021/01/12 03:26:27;;;;;;;12.18;3.13;;;;;;;6.46;100.00;100610.69;4807779;29;20034;-81
2021/01/12 03:28:53;;;;;;;11.82;2.80;;;;;;;6.49;100.00;100599.25;4810818;29;20062;-80
2021/01/12 03:31:18;;;;;;;10.90;2.72;;;;;;;6.59;100.00;100639.22;4803656;29;20083;-80
2021/01/12 03:33:43;;;;;;;11.43;3.45;;;;;;;6.55;100.00;100601.69;4806797;29;20031;-80
2021/01/12 03:36:09;;;;;;;16.48;3.92;;;;;;;6.58;100.00;100591.09;4806217;29;20811;-83
2021/01/12 03:38:34;;;;;;;8.23;2.20;;;;;;;6.58;100.00;100592.88;4809083;29;20043;-83
2021/01/12 03:40:59;;;;;;;15.38;2.67;;;;;;;6.60;100.00;100584.00;4795361;29;20041;-83
2021/01/12 03:43:24;;;;;;;16.55;3.55;;;;;;;6.63;100.00;100572.56;4800403;29;20050;-84
2021/01/12 03:45:51;;;;;;;10.15;2.08;;;;;;;6.63;100.00;100562.06;4805665;29;20081;-84
2021/01/12 03:48:16;;;;;;;15.65;3.20;;;;;;;6.68;100.00;100568.88;4788176;29;20035;-81
2021/01/12 03:50:41;;;;;;;15.48;3.05;;;;;;;6.66;100.00;100567.19;4794700;29;20035;-84
2021/01/12 03:53:07;;;;;;;12.70;3.10;;;;;;;6.69;100.00;100582.88;4815617;29;20376;-83
2021/01/12 03:55:32;;;;;;;18.05;3.30;;;;;;;6.67;100.00;100556.63;4806469;29;20064;-84
2021/01/12 03:57:58;;;;;;;13.52;2.70;;;;;;;6.67;100.00;100554.00;4811564;29;20030;-85
2021/01/12 04:00:23;;;;;;;15.80;2.58;;;;;;;6.67;100.00;100551.38;4808430;29;20038;-83
2021/01/12 04:02:48;;;;;;;21.48;3.05;;;;;;;6.73;100.00;100540.69;4786521;29;20098;-83
2021/01/12 04:05:14;;;;;;;21.27;3.08;;;;;;;6.69;100.00;100546.09;4798325;29;20157;-83
2021/01/12 04:07:39;;;;;;;14.90;3.00;;;;;;;6.74;100.00;100536.28;4807303;29;20046;-83
2021/01/12 04:10:08;;;;;;;16.40;3.55;;;;;;;6.71;100.00;100544.25;4808283;29;20031;-83
2021/01/12 04:12:33;;;;;;;19.15;2.58;;;;;;;6.74;100.00;100531.03;4809206;29;20387;-83
2021/01/12 04:14:58;;;;;;;11.07;2.63;;;;;;;6.71;100.00;100536.38;4813943;29;20038;-83
2021/01/12 04:17:24;;;;;;;16.17;2.40;;;;;;;6.69;100.00;100527.72;4812657;29;20130;-84
2021/01/12 04:19:49;;;;;;;12.88;2.22;;;;;;;6.71;100.00;100523.25;4802830;29;20034;-83
2021/01/12 04:22:14;;;;;;;8.07;1.63;;;;;;;6.76;100.00;100531.84;4807603;29;20041;-82
2021/01/12 04:24:39;;;;;;;18.85;3.63;;;;;;;6.75;100.00;100509.13;4809102;29;20107;-82
2021/01/12 04:27:05;;;;;;;20.02;3.38;;;;;;;6.77;100.00;100519.56;4782661;30;20043;-82
2021/01/12 04:29:30;;;;;;;13.73;2.70;;;;;;;6.73;100.00;100511.81;4789297;29;20035;-82
2021/01/12 04:31:55;;;;;;;14.93;3.85;;;;;;;6.73;100.00;100505.69;4805199;29;20038;-82
2021/01/12 04:34:21;;;;;;;14.90;2.95;;;;;;;6.77;100.00;100520.41;4807453;29;20034;-82
2021/01/12 04:36:46;;;;;;;22.00;3.35;;;;;;;6.75;100.00;100499.47;4807069;29;20034;-82
2021/01/12 04:39:11;;;;;;;12.85;3.38;;;;;;;6.80;100.00;100509.81;4812391;29;20050;-82
2021/01/12 04:41:37;;;;;;;16.55;2.90;;;;;;;6.77;100.00;100495.91;4798651;29;20039;-82
2021/01/12 04:44:02;;;;;;;13.55;3.20;;;;;;;6.79;100.00;100489.72;4809717;29;20054;-81
2021/01/12 04:46:28;;;;;;;11.00;2.47;;;;;;;6.78;100.00;100508.13;4795862;29;20053;-82
2021/01/12 04:48:53;;;;;;;17.63;2.60;;;;;;;6.80;100.00;100482.69;4790702;29;20033;-82
2021/01/12 04:51:18;;;;;;;10.07;2.38;;;;;;;6.79;100.00;100475.72;4802382;29;20034;-82
2021/01/12 04:53:48;;;;;;;12.52;3.22;;;;;;;6.75;100.00;100474.97;4806970;29;20863;-82
2021/01/12 04:56:17;;;;;;;8.02;2.08;;;;;;;6.82;100.00;100476.47;4806489;29;20029;-82
2021/01/12 04:58:45;;;;;;;13.50;2.42;;;;;;;6.79;100.00;100458.19;4806251;29;20038;-82
2021/01/12 05:01:13;;;;;;;18.27;2.88;;;;;;;6.81;100.00;100474.75;4800641;29;20536;-83
2021/01/12 05:03:56;;;;;;;13.90;2.20;;;;;;;6.83;100.00;100472.94;4809723;29;20115;-83
2021/01/12 05:06:26;;;;;;;21.05;4.60;;;;;;;6.83;100.00;100467.69;4793938;29;20046;-83
2021/01/12 05:08:56;;;;;;;14.30;3.47;;;;;;;6.84;100.00;100474.66;4808541;29;20038;-83
2021/01/12 05:11:32;;;;;;;11.32;2.53;;;;;;;6.85;100.00;100470.25;4791533;29;20079;-82
2021/01/12 05:14:17;;;;;;;16.42;3.65;;;;;;;6.83;100.00;100456.28;4817573;29;20107;-82
2021/01/12 05:16:48;;;;;;;16.02;2.70;;;;;;;6.84;100.00;100460.66;4791211;29;20039;-82
2021/01/12 05:19:41;;;;;;;19.20;2.60;;;;;;;6.88;100.00;100455.25;4796117;29;20094;-81
2021/01/12 05:22:11;;;;;;;10.60;2.47;;;;;;;6.88;100.00;100442.13;4716709;30;20403;-82
2021/01/12 05:24:41;;;;;;;20.65;2.70;;;;;;;6.87;100.00;100447.41;4736874;30;20437;-82
2021/01/12 05:27:08;;;;;;;14.30;2.88;;;;;;;6.91;100.00;100465.63;4720030;30;20604;-82
2021/01/12 05:29:34;;;;;;;14.55;2.80;;;;;;;6.88;100.00;100455.25;4722992;30;20037;-82
2021/01/12 05:32:05;;;;;;;14.82;3.30;;;;;;;6.85;100.00;100457.13;4733151;30;20620;-81
2021/01/12 05:34:35;;;;;;;17.98;2.97;;;;;;;6.90;100.00;100455.19;4731721;30;20041;-82
2021/01/12 05:37:03;;;;;;;17.38;3.05;;;;;;;6.91;100.00;100451.66;4724809;30;20052;-83
2021/01/12 05:39:34;;;;;;;19.60;3.38;;;;;;;6.88;100.00;100455.25;4720843;30;20086;-82
2021/01/12 05:42:04;;;;;;;14.48;2.58;;;;;;;6.98;100.00;100459.28;4733168;30;20037;-82
2021/01/12 05:44:35;;;;;;;15.90;3.42;;;;;;;6.97;100.00;100456.69;4728143;30;20573;-82
2021/01/12 05:47:00;;;;;;;14.70;2.65;;;;;;;7.01;100.00;100453.88;4713571;30;20052;-81
2021/01/12 05:49:26;;;;;;;16.60;2.63;;;;;;;7.03;100.00;100459.09;4732888;30;20514;-82
2021/01/12 05:51:51;;;;;;;11.80;2.80;;;;;;;7.04;100.00;100445.06;4733165;30;20053;-82
2021/01/12 05:54:30;;;;;;;17.45;2.42;;;;;;;7.04;100.00;100463.44;4729301;30;20410;-81
2021/01/12 05:57:00;;;;;;;10.68;2.30;;;;;;;7.05;100.00;100459.03;4714328;30;20763;-82
2021/01/12 05:59:31;;;;;;;16.73;3.50;;;;;;;7.06;100.00;100460.75;4780860;29;20046;-83
2021/01/12 06:02:09;;;;;;;14.73;2.72;;;;;;;7.11;100.00;100464.06;4812216;29;20117;-82
2021/01/12 06:04:35;;;;;;;11.15;2.28;;;;;;;7.07;100.00;100468.56;4807306;29;20510;-82
2021/01/12 06:07:02;;;;;;;16.30;2.45;;;;;;;7.09;100.00;100469.38;4793963;29;20045;-82
2021/01/12 06:09:28;;;;;;;14.38;2.45;;;;;;;7.10;100.00;100471.09;4799525;29;20031;-83
2021/01/12 06:11:55;;;;;;;12.00;2.58;;;;;;;7.08;100.00;100469.44;4807398;29;20103;-83
2021/01/12 06:14:26;;;;;;;19.27;3.45;;;;;;;7.13;100.00;100471.00;4792084;29;20046;-83
2021/01/12 06:16:51;;;;;;;13.23;2.60;;;;;;;7.04;100.00;100454.72;4807103;29;20486;-82
2021/01/12 06:19:30;;;;;;;14.63;2.78;;;;;;;7.13;100.00;100471.00;4802175;29;20035;-83
2021/01/12 06:21:55;;;;;;;13.50;2.30;;;;;;;7.16;100.00;100470.03;4790203;29;20039;-83
2021/01/12 06:24:33;;;;;;;10.73;2.28;;;;;;;7.16;100.00;100467.41;4807277;29;20039;-84
2021/01/12 06:26:58;;;;;;;17.27;2.17;;;;;;;7.12;100.00;100468.41;4796809;29;20058;-85
2021/01/12 06:29:24;;;;;;;18.65;3.17;;;;;;;7.08;100.00;100470.31;4792019;29;20091;-84
2021/01/12 06:31:50;;;;;;;14.15;2.60;;;;;;;7.08;100.00;100485.19;4799688;29;20048;-84
2021/01/12 06:34:17;;;;;;;11.57;1.67;;;;;;;7.03;100.00;100472.25;4814469;29;20035;-83
2021/01/12 06:36:48;;;;;;;11.73;2.28;;;;;;;7.09;100.00;100482.53;4806972;29;20027;-83
2021/01/12 06:39:19;;;;;;;11.50;1.95;;;;;;;7.10;100.00;100489.50;4810984;29;20039;-83
2021/01/12 06:41:47;;;;;;;8.48;1.73;;;;;;;7.06;100.00;100487.88;4810301;29;20073;-82
2021/01/12 06:44:20;;;;;;;5.15;1.88;;;;;;;7.11;100.00;100492.97;4803606;29;20135;-83
2021/01/12 06:46:48;;;;;;;10.43;2.78;;;;;;;7.03;100.00;100498.53;4793427;29;20043;-83
2021/01/12 06:49:17;;;;;;;9.20;1.40;;;;;;;7.01;100.00;100493.31;4802747;29;20028;-83
2021/01/12 06:51:42;;;;;;;10.05;1.67;;;;;;;6.97;100.00;100504.81;4816366;29;20030;-83
2021/01/12 06:54:13;;;;;;;5.20;1.70;;;;;;;6.94;100.00;100512.84;4810655;29;20031;-83
2021/01/12 06:56:40;;;;;;;12.00;1.50;;;;;;;6.87;100.00;100516.56;4807604;29;20031;-83
2021/01/12 06:59:13;;;;;;;4.85;1.40;;;;;;;6.84;100.00;100511.44;4781430;29;20027;-85
2021/01/12 07:01:39;;;;;;;13.50;1.75;;;;;;;6.82;100.00;100518.50;4793817;29;20035;-83
2021/01/12 07:20:18;;;;;;;10.02;1.48;;;;;;;6.78;100.00;100535.28;4825359;29;20715;-84
2021/01/12 07:29:06;;;;;;;13.35;2.13;;;;;;;6.71;100.00;100554.78;4940481;24;20058;-80
2021/01/12 07:31:32;;;;;;;4.38;1.83;;;;;;;6.70;100.00;100545.19;4804568;29;20049;-82
2021/01/12 07:38:16;;;;;;;6.03;1.35;;;;;;;6.65;100.00;100563.72;4813688;29;20033;-84
2021/01/12 07:41:40;;;;;;;5.63;1.50;;;;;;;6.65;100.00;100570.75;4752084;30;20131;-84
2021/01/12 07:44:06;;;;;;;10.68;1.48;;;;;;;6.61;100.00;100572.59;4741107;30;20113;-80
2021/01/12 07:46:31;;;;;;;10.13;1.88;;;;;;;6.64;100.00;100575.13;4746091;30;20059;-80
2021/01/12 07:49:22;;;;;;;4.78;1.30;;;;;;;6.63;100.00;100570.78;4740895;30;20032;-82
2021/01/12 07:52:07;;;;;;;5.43;1.70;;;;;;;6.68;100.00;100566.25;4712174;30;20056;-84
2021/01/12 08:02:07;;;;;;;9.05;2.17;;;;;;;6.77;100.00;100608.88;4729705;30;20047;-84
2021/01/12 08:11:33;;;;;;;13.15;2.30;;;;;;;6.72;100.00;100638.75;4744131;30;20055;-82
2021/01/12 08:14:42;;;;;;;14.02;1.80;;;;;;;6.77;100.00;100643.00;4734018;30;20040;-83
2021/01/12 08:21:28;;;;;;;6.47;1.40;;;;;;;6.66;100.00;100661.75;4751282;30;20115;-84
2021/01/12 08:24:08;;;;;;;2.78;1.60;;;;;;;6.53;100.00;100657.78;4735762;30;20223;-82
2021/01/12 08:26:33;;;;;;;11.07;2.00;;;;;;;6.53;100.00;100676.16;4726747;30;20100;-80
2021/01/12 08:28:59;;;;;;;7.25;1.73;;;;;;;6.46;100.00;100673.72;4735716;30;20045;-79
2021/01/12 08:31:24;;;;;;;7.13;2.40;;;;;;;6.46;100.00;100692.09;4730241;30;20118;-81
2021/01/12 08:33:53;;;;;;;7.65;1.50;;;;;;;6.43;100.00;100692.19;4725970;30;21010;-81
2021/01/12 08:36:40;;;;;;;10.18;1.90;;;;;;;6.40;100.00;100701.91;4725494;30;20127;-81
2021/01/12 08:39:35;;;;;;;5.40;1.50;;;;;;;6.38;100.00;100696.72;4726518;30;20041;-83
2021/01/12 08:42:06;;;;;;;7.30;2.50;;;;;;;6.33;100.00;100709.13;4734810;30;20811;-81
2021/01/12 08:44:36;;;;;;;3.58;2.15;;;;;;;6.23;100.00;100710.28;4728696;30;20090;-80
2021/01/12 08:47:05;;;;;;;4.00;1.42;;;;;;;6.14;100.00;100724.53;4724881;30;20187;-82
2021/01/12 08:49:32;;;;;;;9.55;1.63;;;;;;;6.14;100.00;100723.66;4730504;30;20044;-82
2021/01/12 08:52:16;;;;;;;4.97;1.63;;;;;;;6.09;100.00;100720.31;4730647;30;20063;-82
2021/01/12 08:54:53;;;;;;;9.52;2.33;;;;;;;6.07;100.00;100724.72;4724843;30;20060;-82
2021/01/12 09:01:57;;;;;;;11.10;1.90;;;;;;;5.96;100.00;100754.72;4730582;30;20102;-84
2021/01/12 09:04:27;;;;;;;7.47;1.15;;;;;;;5.94;100.00;100768.81;4684096;30;20853;-82
2021/01/12 09:07:43;;;;;;;7.93;1.88;;;;;;;5.82;100.00;100755.97;4699316;30;20041;-82
2021/01/12 09:10:09;;;;;;;11.02;2.20;;;;;;;5.95;100.00;100768.75;4683581;30;20053;-81
2021/01/12 09:13:10;;;;;;;11.23;1.92;;;;;;;6.11;100.00;100778.84;4695259;30;20069;-82
2021/01/12 09:15:43;;;;;;;6.22;1.67;;;;;;;6.13;100.00;100782.31;4681141;30;20446;-82
2021/01/12 09:18:35;;;;;;;6.00;1.50;;;;;;;6.20;100.00;100784.72;4679073;30;20586;-83
2021/01/12 09:21:03;;;;;;;15.13;1.80;;;;;;;6.34;100.00;100793.97;4638561;30;20077;-81
2021/01/12 09:23:29;;;;;;;12.90;1.40;;;;;;;6.32;100.00;100794.00;4677864;30;20508;-81
2021/01/12 09:26:11;;;;;;;10.32;1.88;;;;;;;6.34;100.00;100786.97;4681692;30;20062;-83
2021/01/12 09:28:43;;;;;;;11.43;2.15;;;;;;;6.52;100.00;100795.22;4675959;30;20472;-83
2021/01/12 09:31:40;;;;;;;10.18;1.52;;;;;;;6.55;100.00;100803.88;4684140;30;20076;-83
2021/01/12 09:34:26;;;;;;;;;;;;;;;6.43;100.00;100820.84;4684687;30;20120;-82
2021/01/12 09:36:51;;;;;;;9.43;1.30;;;;;;;6.23;100.00;100820.53;4693818;30;19925;-83
2021/01/12 09:39:16;;;;;;;12.77;2.08;;;;;;;6.20;100.00;100831.94;4688161;30;20034;-85
2021/01/12 09:41:55;;;;;;;7.85;1.27;;;;;;;6.23;100.00;100833.66;4706627;30;20107;-82
2021/01/12 09:45:29;;;;;;;8.85;1.23;;;;;;;6.20;100.00;100834.56;4703006;30;20034;-84
2021/01/12 09:50:51;;;;;;;10.03;2.30;;;;;;;6.31;100.00;100847.41;3078162;27;20139;-82
2021/01/12 10:02:27;;;;;;;14.00;1.87;;;;;;;6.79;100.00;100862.72;4845871;24;20128;-84
2021/01/12 10:05:23;;;;;;;12.40;1.05;;;;;;;6.35;100.00;100880.56;4780680;29;20084;-83
2021/01/12 10:08:25;;;;;;;8.05;1.30;;;;;;;6.11;100.00;100899.56;4793146;29;20114;-84
2021/01/12 10:14:53;;;;;;;5.95;0.90;;;;;;;5.46;100.00;100927.25;4788866;30;20389;-85
2021/01/12 10:17:18;;;;;;;6.00;1.15;;;;;;;5.40;100.00;100932.63;4797479;29;20175;-82
2021/01/12 10:19:44;;;;;;;6.45;0.88;;;;;;;5.38;100.00;100936.19;4804020;29;20422;-82
2021/01/12 10:22:09;;;;;;;4.40;1.08;;;;;;;5.35;100.00;100925.78;4790138;29;20042;-83
2021/01/12 10:24:34;;;;;;;8.20;0.98;;;;;;;5.55;100.00;100935.81;4793041;29;20047;-81
2021/01/12 10:27:00;;;;;;;2.35;0.85;;;;;;;5.39;100.00;100936.16;4796464;29;20126;-80
2021/01/12 10:32:47;;;;;;;14.57;1.48;;;;;;;5.66;100.00;100958.28;4793062;29;20069;-81
2021/01/12 10:35:14;;;;;;;8.93;1.77;;;;;;;5.82;100.00;100950.06;4788431;29;20081;-81
2021/01/12 10:37:39;;;;;;;6.18;1.10;;;;;;;6.00;100.00;100962.78;4792309;29;20042;-83
2021/01/12 10:40:08;;;;;;;14.20;1.73;;;;;;;7.46;100.00;100946.63;4795365;29;20038;-82
2021/01/12 10:46:09;;;;;;;11.70;2.25;;;;;;;9.42;94.77;100942.66;4713294;30;20593;-84
2021/01/12 10:49:03;;;;;;;15.57;1.60;;;;;;;9.31;92.18;100941.28;4712922;30;20048;-84
2021/01/12 10:51:28;;;;;;;10.23;2.00;;;;;;;10.21;91.50;100944.78;4715802;30;20245;-84
2021/01/12 10:54:14;;;;;;;16.25;1.45;;;;;;;8.70;93.30;100958.47;4712246;30;20113;-83
2021/01/12 10:57:02;;;;;;;16.00;2.30;;;;;;;9.46;91.45;100958.31;4716120;30;20052;-83
2021/01/12 11:13:39;;;;;;;11.60;1.58;;;;;;;9.76;81.98;100973.88;1142950;27;20055;-84
2021/01/12 11:16:05;;;;;;;10.77;1.52;;;;;;;9.31;81.82;100987.91;4786700;29;20054;-84
2021/01/12 11:18:34;;;;;;;9.60;1.65;;;;;;;9.17;84.81;100980.47;4803665;29;20650;-85
2021/01/12 11:21:02;;;;;;;12.35;2.03;;;;;;;9.60;82.41;100986.81;4805091;29;20034;-85
2021/01/12 11:23:29;;;;;;;11.77;2.55;;;;;;;9.67;80.42;100977.72;4781699;29;20088;-85
2021/01/12 11:25:55;;;;;;;11.65;3.88;;;;;;;10.68;78.88;100986.03;4798729;29;20074;-85
2021/01/12 11:28:23;;;;;;;17.52;2.53;;;;;;;11.24;75.73;100996.78;4789702;29;20529;-85
2021/01/12 11:30:50;;;;;;;11.07;1.83;;;;;;;10.59;77.53;100998.72;4788227;30;20051;-85
2021/01/12 11:33:15;;;;;;;9.80;1.48;;;;;;;9.07;79.42;101011.59;4772648;30;20042;-85
2021/01/12 11:35:43;;;;;;;11.68;1.75;;;;;;;8.76;79.23;101006.53;4787652;29;20046;-87
2021/01/12 11:38:08;;;;;;;17.35;2.50;;;;;;;7.95;82.96;101009.16;4768722;29;20053;-86
2021/01/12 11:40:34;;;;;;;10.82;1.52;;;;;;;7.37;84.02;101012.63;4771162;30;20043;-86
2021/01/12 11:48:59;;;;;;;9.87;1.63;;;;;;;8.10;79.31;101015.72;1284778;27;20144;-83
2021/01/12 11:52:07;;;;;;;14.95;2.53;;;;;;;7.46;82.98;101022.91;4810693;29;20034;-84
2021/01/12 12:04:23;;;;;;;8.95;1.48;;;;;;;6.59;85.94;101052.38;4771216;30;20105;-85
2021/01/12 12:11:15;;;;;;;6.32;2.17;;;;;;;6.36;79.54;101050.28;4686303;30;20068;-85
2021/01/12 12:13:41;;;;;;;6.97;1.52;;;;;;;6.74;79.95;101046.72;4690013;30;20072;-82
2021/01/12 12:16:49;;;;;;;13.63;1.27;;;;;;;6.58;76.21;101047.16;4686623;30;20117;-83
2021/01/12 12:19:39;;;;;;;;;;;;;;;6.76;77.05;101049.31;4677178;30;20046;-83
2021/01/12 12:22:06;;;;;;;6.82;1.35;;;;;;;7.87;70.24;101023.44;4689891;30;20014;-84
2021/01/12 12:24:49;;;;;;;9.18;2.17;;;;;;;8.58;70.07;101036.13;4690715;30;20041;-83
2021/01/12 12:28:08;;;;;;;6.40;1.55;;;;;;;8.68;68.68;101040.19;4679658;30;20092;-82
2021/01/12 12:31:11;;;;;;;9.82;1.58;;;;;;;9.59;68.03;101029.97;4681910;30;20121;-83
2021/01/12 12:33:39;;;;;;;3.17;0.88;;;;;;;9.06;64.57;101022.19;4628687;30;20049;-82
2021/01/12 12:36:55;;;;;;;13.50;1.75;;;;;;;10.18;65.01;101024.13;4692872;30;20064;-84
2021/01/12 12:40:21;;;;;;;12.75;1.90;;;;;;;10.04;64.65;101035.28;4691656;30;20096;-84
2021/01/12 12:42:50;;;;;;;8.50;1.90;;;;;;;8.44;70.10;101033.09;4677454;30;20056;-84
2021/01/12 12:45:39;;;;;;;12.13;2.00;;;;;;;8.15;70.61;101055.06;4692212;30;20076;-84
2021/01/12 12:48:07;;;;;;;15.35;1.45;;;;;;;7.19;70.98;101061.34;4747294;30;20059;-84
2021/01/12 12:50:59;;;;;;;10.75;1.83;;;;;;;6.93;71.44;101062.91;4773435;30;20431;-85
2021/01/12 12:53:52;;;;;;;10.90;1.40;;;;;;;7.83;68.23;101062.16;4754923;30;20693;-86
2021/01/12 12:56:23;;;;;;;5.63;1.17;;;;;;;7.13;69.67;101066.75;4766497;30;20036;-84
2021/01/12 12:59:10;;;;;;;6.38;1.30;;;;;;;7.49;70.69;101072.78;4770788;30;20416;-86
2021/01/12 13:01:59;;;;;;;13.93;1.90;;;;;;;7.75;70.47;101069.41;4736690;30;20105;-83
2021/01/12 13:04:24;;;;;;;11.70;1.35;;;;;;;8.38;66.62;101068.38;4776781;29;20061;-82
2021/01/12 13:06:51;;;;;;;7.35;2.20;;;;;;;9.24;65.65;101073.44;4794181;29;20039;-83
2021/01/12 13:09:17;;;;;;;5.10;1.73;;;;;;;8.82;63.20;101064.31;4807201;29;20038;-84
2021/01/12 13:11:53;;;;;;;12.23;2.55;;;;;;;8.66;64.16;101073.63;4784839;29;20035;-84
2021/01/12 13:51:09;;;;;;;12.45;1.50;;;;;;;7.97;67.04;101115.22;4802905;29;20323;-85
2021/01/12 13:53:34;;;;;;;8.65;1.55;;;;;;;7.37;69.90;101109.94;4789209;29;20035;-86
2021/01/12 13:56:00;;;;;;;8.60;1.13;;;;;;;7.11;70.72;101132.50;4783765;29;20035;-86
2021/01/12 13:58:28;;;;;;;6.63;1.23;;;;;;;6.88;73.80;101125.22;4785917;29;20141;-86
2021/01/12 14:00:53;;;;;;;14.75;1.42;;;;;;;6.67;75.45;101137.06;4803073;29;20037;-86
2021/01/12 14:03:19;;;;;;;10.73;1.40;;;;;;;6.45;74.74;101133.22;4789707;29;20090;-86